Time;durP1;ratioP1;P1;durP2;ratioP2;P2;SDS_P1;SDS_P2;PMS_P1;PMS_P2;Temp;Humidity;BMP_temperature;BMP_pressure;BME280_temperature;BME280_humidity;BME280_pressure;Samples;Min_cycle;Max_cycle;Signal;HPM_P1;HPM_P2
2021/12/25 00:01:24;;;;;;;4.03;2.67;;;-4.80;80.20;;;;;;5057334;28;20268;-87
2021/12/25 00:03:53;;;;;;;7.53;2.70;;;-4.80;80.10;;;;;;5075689;28;20336;-89
2021/12/25 00:06:19;;;;;;;9.37;2.70;;;-4.80;80.00;;;;;;5075401;28;20224;-88
2021/12/25 00:08:48;;;;;;;4.60;2.57;;;-4.90;80.00;;;;;;5057688;28;20171;-89
2021/12/25 00:11:14;;;;;;;3.23;2.23;;;-4.90;80.00;;;;;;5057378;28;20265;-87
2021/12/25 00:13:43;;;;;;;5.03;2.63;;;-4.90;80.00;;;;;;5056415;28;20635;-89
2021/12/25 00:16:09;;;;;;;4.97;2.87;;;-4.90;79.90;;;;;;5075266;28;20643;-89
2021/12/25 00:18:36;;;;;;;4.67;2.80;;;-4.90;79.80;;;;;;5057219;28;20179;-87
2021/12/25 00:21:03;;;;;;;5.00;2.47;;;-4.90;79.80;;;;;;5074837;28;20286;-88
2021/12/25 00:23:28;;;;;;;4.63;2.50;;;-4.90;79.80;;;;;;5056513;28;20201;-88
2021/12/25 00:26:00;;;;;;;5.60;2.97;;;-5.00;79.70;;;;;;5074523;28;20176;-89
2021/12/25 00:36:10;;;;;;;5.73;2.53;;;-5.30;80.40;;;;;;5074753;28;20600;-87
2021/12/25 00:38:37;;;;;;;3.87;2.60;;;-5.50;81.00;;;;;;5056083;28;20191;-88
2021/12/25 00:41:06;;;;;;;4.73;2.57;;;-5.50;81.50;;;;;;5056454;28;20211;-88
2021/12/25 00:43:32;;;;;;;4.27;2.30;;;-5.60;81.70;;;;;;5056252;28;20205;-86
2021/12/25 00:45:57;;;;;;;4.33;2.57;;;-5.50;81.80;;;;;;5056182;28;20171;-86
2021/12/25 00:48:23;;;;;;;3.63;2.80;;;-5.50;81.80;;;;;;5055503;28;20175;-86
2021/12/25 00:50:49;;;;;;;4.93;2.57;;;-5.50;81.70;;;;;;5073188;28;20217;-86
2021/12/25 00:53:15;;;;;;;3.47;2.30;;;-5.50;81.70;;;;;;5055294;28;20249;-86
2021/12/25 00:55:40;;;;;;;3.83;2.37;;;-5.50;81.80;;;;;;5055146;28;20175;-86
2021/12/25 00:58:06;;;;;;;6.40;2.67;;;-5.60;81.80;;;;;;5055217;28;20647;-87
2021/12/25 01:00:32;;;;;;;5.70;3.30;;;-5.60;81.90;;;;;;5055213;28;20689;-86
2021/12/25 01:02:57;;;;;;;5.07;2.53;;;-5.60;81.80;;;;;;5055110;28;20186;-87
2021/12/25 01:05:23;;;;;;;5.50;2.73;;;-5.60;81.70;;;;;;5055112;28;20647;-85
2021/12/25 01:07:49;;;;;;;8.30;3.03;;;-5.70;81.60;;;;;;5055229;28;20221;-87
2021/12/25 01:10:18;;;;;;;6.30;2.97;;;-5.80;81.70;;;;;;5055126;28;20211;-87
2021/12/25 01:13:08;;;;;;;5.77;3.00;;;-5.80;81.80;;;;;;5073266;28;20180;-87
2021/12/25 01:16:00;;;;;;;4.07;2.70;;;-5.80;82.00;;;;;;5073115;28;20179;-87
2021/12/25 01:31:43;;;;;;;5.93;3.20;;;-6.10;82.30;;;;;;5076626;28;20155;-86
2021/12/25 01:37:06;;;;;;;8.03;4.07;;;-6.10;82.70;;;;;;5076951;28;20651;-86
2021/12/25 01:49:57;;;;;;;7.43;2.93;;;-6.20;83.00;;;;;;5076493;28;20182;-87
2021/12/25 01:52:29;;;;;;;5.43;3.37;;;-6.20;83.20;;;;;;5058352;28;20182;-86
2021/12/25 01:55:02;;;;;;;6.53;2.77;;;-6.20;83.10;;;;;;5076283;28;20743;-86
2021/12/25 01:57:29;;;;;;;3.40;2.77;;;-6.30;83.00;;;;;;5058413;28;20181;-86
2021/12/25 01:59:56;;;;;;;6.43;2.70;;;-6.30;82.90;;;;;;5058072;28;20174;-86
2021/12/25 02:02:23;;;;;;;6.03;2.83;;;-6.40;83.00;;;;;;5076171;28;20175;-86
2021/12/25 02:04:49;;;;;;;5.40;2.80;;;-6.40;83.10;;;;;;5075970;28;20226;-87
2021/12/25 02:07:15;;;;;;;4.37;3.27;;;-6.40;83.20;;;;;;5058174;28;20194;-86
2021/12/25 02:09:41;;;;;;;3.50;2.27;;;-6.40;83.10;;;;;;5058123;28;20666;-86
2021/12/25 02:12:07;;;;;;;4.93;3.37;;;-6.40;83.00;;;;;;5057953;28;20270;-86
2021/12/25 02:14:35;;;;;;;2.60;2.33;;;-6.40;83.00;;;;;;5057779;28;20219;-87
2021/12/25 02:17:14;;;;;;;7.90;2.67;;;-6.50;83.00;;;;;;5075844;28;20632;-87
2021/12/25 02:19:51;;;;;;;7.03;2.70;;;-6.50;83.10;;;;;;5075829;28;20618;-86
2021/12/25 02:22:18;;;;;;;7.60;2.50;;;-6.60;83.20;;;;;;5057832;28;20182;-86
2021/12/25 02:24:45;;;;;;;10.00;2.87;;;-6.60;83.30;;;;;;5075669;28;20665;-86
2021/12/25 02:27:11;;;;;;;2.97;2.50;;;-6.60;83.50;;;;;;5057787;28;20186;-87
2021/12/25 02:29:37;;;;;;;6.00;3.00;;;-6.60;83.60;;;;;;5057677;28;20608;-86
2021/12/25 02:32:04;;;;;;;3.27;2.43;;;-6.60;83.60;;;;;;5075596;28;20365;-88
2021/12/25 02:34:30;;;;;;;4.77;2.60;;;-6.70;83.80;;;;;;5075446;28;20240;-87
2021/12/25 02:36:55;;;;;;;3.83;2.13;;;-6.80;84.20;;;;;;5056983;28;20269;-85
2021/12/25 02:39:21;;;;;;;4.17;2.40;;;-6.80;84.20;;;;;;5057521;28;20175;-86
2021/12/25 02:41:47;;;;;;;5.77;2.40;;;-6.90;84.20;;;;;;5057559;28;20255;-86
2021/12/25 02:44:12;;;;;;;5.03;2.23;;;-6.80;84.40;;;;;;5057426;28;20198;-86
2021/12/25 02:46:38;;;;;;;3.27;2.37;;;-6.80;84.50;;;;;;5075256;28;20173;-87
2021/12/25 02:49:14;;;;;;;4.90;2.57;;;-6.80;84.80;;;;;;5057239;28;20256;-86
2021/12/25 02:51:43;;;;;;;3.00;2.43;;;-6.80;85.00;;;;;;5057168;28;20174;-87
2021/12/25 02:54:09;;;;;;;7.33;2.70;;;-6.90;84.90;;;;;;5057101;28;20298;-86
2021/12/25 02:56:34;;;;;;;9.67;2.60;;;-6.90;84.80;;;;;;5075103;28;20220;-87
2021/12/25 02:59:00;;;;;;;2.87;2.13;;;-6.80;84.80;;;;;;5057112;28;20185;-87
2021/12/25 03:01:26;;;;;;;2.93;2.50;;;-6.80;84.70;;;;;;5074920;28;20216;-86
2021/12/25 03:03:52;;;;;;;7.87;3.07;;;-6.80;84.60;;;;;;5074864;28;20650;-87
2021/12/25 03:06:18;;;;;;;4.30;2.60;;;-6.70;84.50;;;;;;5056940;28;20181;-87
2021/12/25 03:08:44;;;;;;;6.37;3.00;;;-6.60;84.30;;;;;;5056905;28;20185;-87
2021/12/25 03:11:13;;;;;;;4.97;3.00;;;-6.60;84.10;;;;;;5074824;28;20186;-87
2021/12/25 03:13:46;;;;;;;12.10;2.93;;;-6.60;84.40;;;;;;5056666;28;20244;-87
2021/12/25 03:16:12;;;;;;;6.23;2.90;;;-6.50;84.60;;;;;;5056857;28;20551;-87
2021/12/25 03:18:46;;;;;;;5.57;2.87;;;-6.40;85.30;;;;;;5056814;28;20259;-87
2021/12/25 03:21:14;;;;;;;5.80;3.03;;;-6.40;85.00;;;;;;5056700;28;20201;-87
2021/12/25 03:23:41;;;;;;;4.70;2.97;;;-6.50;85.30;;;;;;5056533;28;20659;-87
2021/12/25 03:26:08;;;;;;;9.10;2.83;;;-6.40;85.50;;;;;;5056677;28;20179;-87
2021/12/25 03:28:37;;;;;;;6.93;2.63;;;-6.50;85.50;;;;;;5056516;28;20272;-88
2021/12/25 03:31:12;;;;;;;10.23;2.93;;;-6.40;85.70;;;;;;5074397;28;20179;-86
2021/12/25 03:33:38;;;;;;;4.17;2.90;;;-6.30;85.80;;;;;;5074351;28;20188;-85
2021/12/25 03:36:04;;;;;;;11.30;3.60;;;-6.50;85.60;;;;;;5056440;28;20194;-87
2021/12/25 03:38:30;;;;;;;9.20;3.37;;;-6.60;85.40;;;;;;5056295;28;20185;-86
2021/12/25 03:40:56;;;;;;;6.50;3.17;;;-6.60;85.60;;;;;;5074119;28;20204;-87
2021/12/25 03:43:22;;;;;;;6.40;3.13;;;-6.50;85.90;;;;;;5056138;28;20200;-86
2021/12/25 03:45:49;;;;;;;6.47;3.70;;;-6.50;86.20;;;;;;5073986;28;20735;-87
2021/12/25 03:57:37;;;;;;;6.57;3.20;;;-6.50;86.40;;;;;;5074545;28;20254;-87
2021/12/25 03:59:12;;;;;;;6.03;2.93;;;-6.80;85.90;;;;;;5074102;28;20197;-87
2021/12/25 04:06:35;;;;;;;12.33;2.83;;;-7.00;86.10;;;;;;5074055;28;20194;-87
2021/12/25 04:09:09;;;;;;;5.00;2.37;;;-7.00;86.20;;;;;;5055873;28;20178;-88
2021/12/25 04:11:35;;;;;;;4.80;2.87;;;-7.00;86.20;;;;;;5073863;28;20613;-86
2021/12/25 04:14:01;;;;;;;6.47;3.23;;;-7.10;86.30;;;;;;5055706;28;20217;-87
2021/12/25 04:16:27;;;;;;;14.50;3.27;;;-7.00;86.30;;;;;;5055656;28;20540;-88
2021/12/25 04:18:54;;;;;;;8.17;3.40;;;-7.10;86.30;;;;;;5073473;28;20222;-86
2021/12/25 04:21:20;;;;;;;3.83;2.77;;;-7.10;86.20;;;;;;5056145;28;20579;-86
2021/12/25 04:23:46;;;;;;;3.87;2.60;;;-7.10;86.20;;;;;;5073423;28;20236;-87
2021/12/25 04:26:13;;;;;;;7.13;3.20;;;-7.10;86.20;;;;;;5055407;28;20181;-87
2021/12/25 04:28:48;;;;;;;6.60;3.03;;;-7.20;86.20;;;;;;5055421;28;20322;-86
2021/12/25 05:01:41;;;;;;;6.50;3.03;;;-7.30;86.60;;;;;;5073281;28;20169;-86
2021/12/25 05:04:08;;;;;;;8.53;3.97;;;-7.40;86.30;;;;;;5077435;28;20302;-86
2021/12/25 05:06:34;;;;;;;4.47;3.67;;;-7.40;86.40;;;;;;5077345;28;20217;-86
2021/12/25 05:09:00;;;;;;;11.30;3.67;;;-7.40;86.40;;;;;;5077009;28;20631;-86
2021/12/25 05:11:25;;;;;;;5.73;3.50;;;-7.40;86.30;;;;;;5059155;28;20177;-85
2021/12/25 05:13:51;;;;;;;8.33;3.73;;;-7.50;86.30;;;;;;5058822;28;20218;-86
2021/12/25 05:16:17;;;;;;;7.30;3.80;;;-7.50;86.20;;;;;;5058952;28;20181;-87
2021/12/25 05:18:43;;;;;;;9.00;3.70;;;-7.50;86.30;;;;;;5059509;28;20329;-86
2021/12/25 05:21:09;;;;;;;7.40;4.00;;;-7.50;86.20;;;;;;5058664;28;20289;-87
2021/12/25 05:23:36;;;;;;;6.00;3.53;;;-7.50;85.90;;;;;;5076679;28;20212;-85
2021/12/25 05:26:02;;;;;;;10.33;3.73;;;-7.50;86.00;;;;;;5058601;28;20633;-86
2021/12/25 05:28:38;;;;;;;7.23;3.80;;;-7.50;86.00;;;;;;5058654;28;20183;-86
2021/12/25 05:31:04;;;;;;;8.23;2.87;;;-7.60;85.90;;;;;;5076582;28;20195;-87
2021/12/25 05:33:29;;;;;;;3.37;3.07;;;-7.60;85.80;;;;;;5058683;28;20581;-87
2021/12/25 05:35:55;;;;;;;3.93;3.07;;;-7.60;85.80;;;;;;5058510;28;20188;-87
2021/12/25 05:38:22;;;;;;;6.63;3.83;;;-7.60;85.80;;;;;;5058577;28;20185;-85
2021/12/25 05:40:49;;;;;;;4.30;3.20;;;-7.70;85.70;;;;;;5058272;28;20216;-86
2021/12/25 05:43:16;;;;;;;6.03;3.50;;;-7.80;85.50;;;;;;5058455;28;20201;-86
2021/12/25 05:45:42;;;;;;;5.80;3.10;;;-7.80;85.50;;;;;;5076324;28;20173;-86
2021/12/25 05:48:09;;;;;;;8.67;3.50;;;-7.80;85.50;;;;;;5058899;28;20540;-87
2021/12/25 05:50:35;;;;;;;4.03;2.77;;;-7.80;85.60;;;;;;5076191;28;20184;-85
2021/12/25 05:53:01;;;;;;;6.27;3.97;;;-7.80;85.60;;;;;;5076005;28;20176;-85
2021/12/25 05:55:27;;;;;;;13.30;3.90;;;-7.90;85.60;;;;;;5058051;28;20177;-86
2021/12/25 05:57:53;;;;;;;7.10;3.80;;;-7.90;85.60;;;;;;5076210;28;20676;-86
2021/12/25 06:00:20;;;;;;;8.50;3.30;;;-7.90;85.60;;;;;;5058056;28;20207;-86
2021/12/25 06:02:47;;;;;;;9.43;3.77;;;-7.90;85.70;;;;;;5075981;28;20215;-86
2021/12/25 06:05:14;;;;;;;6.30;3.30;;;-8.00;85.70;;;;;;5075913;28;20169;-86
2021/12/25 06:07:40;;;;;;;7.07;3.90;;;-7.90;85.80;;;;;;5058055;28;20173;-86
2021/12/25 06:10:09;;;;;;;4.70;3.60;;;-7.70;86.10;;;;;;5057323;28;20583;-86
2021/12/25 06:12:38;;;;;;;4.70;3.70;;;-7.60;86.50;;;;;;5058000;28;20171;-86
2021/12/25 06:15:09;;;;;;;5.53;3.57;;;-7.50;86.80;;;;;;5057641;28;20218;-85
2021/12/25 06:17:35;;;;;;;3.93;3.27;;;-7.40;87.00;;;;;;5075859;28;20158;-84
2021/12/25 06:20:02;;;;;;;7.73;3.47;;;-7.40;87.00;;;;;;5075656;28;20176;-85
2021/12/25 06:22:28;;;;;;;4.50;3.10;;;-7.40;86.80;;;;;;5057605;28;20217;-86
2021/12/25 06:24:54;;;;;;;12.57;3.63;;;-7.30;86.70;;;;;;5057619;28;20201;-85
2021/12/25 06:27:21;;;;;;;5.10;3.60;;;-7.40;86.60;;;;;;5057712;28;20176;-86
2021/12/25 06:29:47;;;;;;;6.97;3.07;;;-7.40;86.60;;;;;;5075771;28;20177;-86
2021/12/25 06:32:13;;;;;;;8.33;3.33;;;-7.40;86.60;;;;;;5057932;28;20329;-86
2021/12/25 06:34:39;;;;;;;6.73;3.80;;;-7.40;86.50;;;;;;5075314;28;20681;-86
2021/12/25 06:37:05;;;;;;;8.60;3.10;;;-7.60;86.30;;;;;;5057383;28;20181;-86
2021/12/25 06:39:31;;;;;;;3.87;3.47;;;-7.70;86.20;;;;;;5075307;28;20253;-86
2021/12/25 06:41:57;;;;;;;5.73;4.00;;;-7.60;86.60;;;;;;5075231;28;20197;-87
2021/12/25 06:44:24;;;;;;;9.53;3.50;;;-7.40;87.20;;;;;;5057269;28;20363;-86
2021/12/25 06:46:57;;;;;;;5.93;3.53;;;-7.20;87.60;;;;;;5057275;28;20284;-86
2021/12/25 06:49:23;;;;;;;7.17;3.50;;;-7.10;87.80;;;;;;5057214;28;20187;-86
2021/12/25 06:51:50;;;;;;;7.57;3.37;;;-7.00;87.80;;;;;;5057447;28;20588;-87
2021/12/25 06:54:17;;;;;;;7.53;3.83;;;-7.10;87.90;;;;;;5057113;28;20212;-86
2021/12/25 06:56:44;;;;;;;7.73;3.63;;;-7.00;88.00;;;;;;5056968;28;20173;-86
2021/12/25 06:59:10;;;;;;;10.13;3.70;;;-7.00;88.00;;;;;;5074973;28;20165;-86
2021/12/25 07:01:37;;;;;;;5.40;3.70;;;-6.90;88.00;;;;;;5074734;28;20233;-86
2021/12/25 07:04:04;;;;;;;6.70;4.23;;;-6.90;88.00;;;;;;5074968;28;20209;-87
2021/12/25 07:06:29;;;;;;;3.90;3.50;;;-6.90;87.90;;;;;;5056795;28;20181;-86
2021/12/25 07:08:55;;;;;;;9.13;4.00;;;-6.90;87.90;;;;;;5056831;28;20173;-87
2021/12/25 07:11:21;;;;;;;6.43;3.07;;;-6.90;88.00;;;;;;5056735;28;20198;-87
2021/12/25 07:13:48;;;;;;;11.80;3.57;;;-6.90;88.00;;;;;;5074625;28;20209;-87
2021/12/25 07:16:14;;;;;;;4.60;3.77;;;-6.80;88.00;;;;;;5074528;28;20184;-86
2021/12/25 07:18:40;;;;;;;6.33;3.87;;;-6.80;88.00;;;;;;5074522;28;20179;-86
2021/12/25 07:21:06;;;;;;;5.70;4.00;;;-6.80;87.90;;;;;;5056444;28;20237;-86
2021/12/25 07:23:32;;;;;;;6.60;3.47;;;-6.90;87.90;;;;;;5074258;28;20192;-86
2021/12/25 07:25:59;;;;;;;6.93;3.63;;;-6.90;87.80;;;;;;5074366;28;20172;-86
2021/12/25 07:28:25;;;;;;;8.23;4.07;;;-6.90;87.80;;;;;;5074273;28;20196;-88
2021/12/25 07:30:51;;;;;;;5.60;3.80;;;-6.90;87.80;;;;;;5056469;28;20177;-86
2021/12/25 07:33:18;;;;;;;10.00;4.07;;;-6.90;87.90;;;;;;5056192;28;20197;-86
2021/12/25 07:35:43;;;;;;;4.30;3.70;;;-6.90;87.90;;;;;;5056246;28;20175;-86
2021/12/25 07:38:09;;;;;;;7.50;4.50;;;-6.90;88.00;;;;;;5056225;28;20183;-86
2021/12/25 07:40:35;;;;;;;11.33;3.90;;;-6.90;87.90;;;;;;5056194;28;20201;-86
2021/12/25 07:43:00;;;;;;;3.33;3.03;;;-6.90;87.90;;;;;;5056120;28;20174;-86
2021/12/25 07:45:26;;;;;;;11.00;3.87;;;-7.10;87.70;;;;;;5074077;28;20263;-86
2021/12/25 07:48:01;;;;;;;11.43;3.70;;;-7.10;87.60;;;;;;5056055;28;20177;-86
2021/12/25 07:50:30;;;;;;;12.73;5.30;;;-7.10;87.60;;;;;;5055993;28;20165;-86
2021/12/25 07:52:56;;;;;;;7.30;3.53;;;-7.20;87.70;;;;;;5055791;28;20173;-86
2021/12/25 07:55:22;;;;;;;5.37;3.73;;;-7.20;87.70;;;;;;5073778;28;20260;-86
2021/12/25 07:57:48;;;;;;;13.27;3.43;;;-7.30;87.50;;;;;;5055864;28;20265;-86
2021/12/25 08:00:15;;;;;;;6.70;3.70;;;-7.40;87.40;;;;;;5055843;28;20676;-87
2021/12/25 08:02:41;;;;;;;3.73;3.43;;;-7.50;87.40;;;;;;5055747;28;20551;-86
2021/12/25 08:05:08;;;;;;;6.40;3.80;;;-7.40;87.40;;;;;;5055633;28;20197;-86
2021/12/25 08:07:33;;;;;;;11.70;4.13;;;-7.30;87.60;;;;;;5055788;28;20204;-86
2021/12/25 08:10:12;;;;;;;6.47;4.37;;;-7.30;87.60;;;;;;5055727;28;20213;-86
2021/12/25 08:12:43;;;;;;;8.00;3.80;;;-7.10;87.70;;;;;;5055755;28;20168;-87
2021/12/25 08:15:10;;;;;;;4.43;3.70;;;-7.10;87.60;;;;;;5073478;28;20207;-86
2021/12/25 08:17:36;;;;;;;11.20;3.87;;;-7.20;87.40;;;;;;5073449;28;20180;-86
2021/12/25 08:20:02;;;;;;;8.37;3.20;;;-7.20;87.40;;;;;;5073295;28;20173;-86
2021/12/25 08:22:27;;;;;;;5.13;3.90;;;-7.10;87.40;;;;;;5055384;28;20658;-86
2021/12/25 08:24:53;;;;;;;5.67;3.73;;;-7.00;87.60;;;;;;5055395;28;20197;-86
2021/12/25 08:27:18;;;;;;;4.73;3.13;;;-7.10;87.50;;;;;;5055407;28;20355;-86
2021/12/25 08:29:44;;;;;;;7.50;3.57;;;-7.10;87.40;;;;;;5055419;28;20177;-87
2021/12/25 08:32:10;;;;;;;4.33;3.33;;;-7.00;87.50;;;;;;5055385;28;20199;-87
2021/12/25 08:34:38;;;;;;;8.03;3.90;;;-7.10;87.30;;;;;;5054801;28;20223;-86
2021/12/25 08:37:05;;;;;;;6.33;4.07;;;-7.20;87.20;;;;;;5073209;28;20671;-86
2021/12/25 08:39:31;;;;;;;4.57;3.90;;;-7.20;87.20;;;;;;5055261;28;20172;-86
2021/12/25 08:42:02;;;;;;;7.87;3.93;;;-7.10;87.40;;;;;;5073093;28;20242;-86
2021/12/25 08:44:38;;;;;;;4.13;3.13;;;-7.20;87.50;;;;;;5055187;28;20677;-87
2021/12/25 08:47:10;;;;;;;4.97;4.10;;;-7.20;87.80;;;;;;5073324;28;20583;-86
2021/12/25 08:49:38;;;;;;;7.77;3.90;;;-7.10;88.40;;;;;;5073475;28;20164;-85
2021/12/25 08:52:08;;;;;;;5.27;4.10;;;-6.90;88.50;;;;;;5073126;28;20185;-86
2021/12/25 08:54:34;;;;;;;7.70;4.40;;;-6.90;88.60;;;;;;5055036;28;20196;-85
2021/12/25 08:57:01;;;;;;;8.13;3.87;;;-6.50;89.00;;;;;;5072950;28;20180;-86
2021/12/25 08:59:27;;;;;;;6.50;4.13;;;-6.50;88.90;;;;;;5054970;28;20180;-86
2021/12/25 09:01:54;;;;;;;7.80;3.67;;;-6.40;88.90;;;;;;5054809;28;20197;-85
2021/12/25 09:04:19;;;;;;;8.90;3.50;;;-6.40;88.80;;;;;;5073135;28;20185;-86
2021/12/25 09:06:45;;;;;;;5.70;3.87;;;-6.50;88.60;;;;;;5073101;28;20520;-86
2021/12/25 09:09:11;;;;;;;4.57;3.60;;;-6.50;88.50;;;;;;5072898;28;20214;-86
2021/12/25 09:11:38;;;;;;;5.00;3.40;;;-6.60;88.40;;;;;;5054871;28;20182;-86
2021/12/25 09:14:05;;;;;;;7.20;3.50;;;-6.50;88.50;;;;;;5072640;28;20213;-86
2021/12/25 09:16:31;;;;;;;5.00;4.10;;;-6.50;88.60;;;;;;5054982;28;20177;-86
2021/12/25 09:18:57;;;;;;;4.87;4.33;;;-6.30;89.10;;;;;;5054887;28;20184;-85
2021/12/25 09:21:22;;;;;;;5.80;4.00;;;-6.10;89.30;;;;;;5072627;28;20205;-86
2021/12/25 09:23:48;;;;;;;5.27;4.10;;;-6.10;89.00;;;;;;5072898;28;20630;-86
2021/12/25 09:26:14;;;;;;;12.53;4.60;;;-6.10;89.00;;;;;;5072705;28;20172;-86
2021/12/25 09:28:40;;;;;;;7.27;4.43;;;-5.90;89.00;;;;;;5054607;28;20182;-85
2021/12/25 09:31:06;;;;;;;4.57;3.93;;;-5.90;89.00;;;;;;5072610;28;20637;-86
2021/12/25 09:33:32;;;;;;;7.33;4.37;;;-5.80;89.00;;;;;;5072506;28;20200;-86
2021/12/25 09:36:02;;;;;;;12.47;4.83;;;-5.80;89.00;;;;;;5054565;28;20183;-86
2021/12/25 09:38:28;;;;;;;14.37;4.90;;;-5.60;88.90;;;;;;5072705;28;20713;-86
2021/12/25 09:40:55;;;;;;;11.87;5.07;;;-5.50;88.90;;;;;;5054475;28;20623;-85
2021/12/25 09:43:21;;;;;;;7.73;5.40;;;-5.40;88.80;;;;;;5054394;28;20197;-85
2021/12/25 09:45:46;;;;;;;7.93;4.87;;;-5.50;88.60;;;;;;5055323;28;20178;-85
2021/12/25 09:48:12;;;;;;;6.47;4.40;;;-5.40;88.60;;;;;;5058187;28;20204;-85
2021/12/25 09:50:38;;;;;;;7.43;4.67;;;-5.30;88.80;;;;;;5057976;28;20178;-85
2021/12/25 09:53:09;;;;;;;11.07;4.63;;;-5.30;88.70;;;;;;5075887;28;20721;-85
2021/12/25 09:55:35;;;;;;;10.63;4.33;;;-5.20;88.90;;;;;;5076134;28;20268;-86
2021/12/25 09:58:01;;;;;;;12.17;5.20;;;-5.00;88.90;;;;;;5058379;28;20527;-85
2021/12/25 10:00:27;;;;;;;9.50;6.23;;;-5.00;88.90;;;;;;5057945;28;20212;-84
2021/12/25 10:02:55;;;;;;;7.47;4.17;;;-4.90;88.80;;;;;;5075828;28;20254;-87
2021/12/25 10:05:28;;;;;;;6.63;4.33;;;-4.90;88.80;;;;;;5057913;28;20181;-86
2021/12/25 10:08:11;;;;;;;9.57;4.77;;;-4.80;88.90;;;;;;5057838;28;20182;-85
2021/12/25 10:10:47;;;;;;;8.67;4.53;;;-4.60;89.20;;;;;;5057956;28;20600;-86
2021/12/25 10:15:39;;;;;;;9.67;4.70;;;-4.50;88.90;;;;;;5147184;22;20239;-88
2021/12/25 10:18:05;;;;;;;9.00;4.50;;;-4.50;88.70;;;;;;5055056;28;20195;-88
2021/12/25 10:20:32;;;;;;;9.00;4.17;;;-4.40;88.70;;;;;;5054514;28;20684;-88
2021/12/25 10:23:08;;;;;;;4.27;3.57;;;-4.20;88.90;;;;;;5055732;28;20680;-88
2021/12/25 10:25:44;;;;;;;5.33;3.50;;;-4.10;88.90;;;;;;5055969;28;20187;-88
2021/12/25 10:28:10;;;;;;;10.07;3.40;;;-4.00;88.50;;;;;;5054528;28;20178;-88
2021/12/25 10:30:50;;;;;;;5.73;3.47;;;-3.90;88.20;;;;;;5054778;28;20191;-88
2021/12/25 10:33:30;;;;;;;12.87;3.30;;;-3.80;87.60;;;;;;5055579;28;20213;-87
2021/12/25 10:35:58;;;;;;;7.67;3.20;;;-3.70;86.90;;;;;;5054382;28;20225;-88
2021/12/25 10:38:24;;;;;;;3.83;2.77;;;-3.60;86.90;;;;;;5055537;28;20176;-88
2021/12/25 10:41:27;;;;;;;3.77;2.57;;;-3.40;87.00;;;;;;5055495;28;20184;-88
2021/12/25 10:44:14;;;;;;;4.53;3.13;;;-3.30;86.20;;;;;;5049695;28;20204;-88
2021/12/25 10:47:06;;;;;;;5.57;2.87;;;-3.10;86.70;;;;;;5054145;28;20624;-88
2021/12/25 10:49:44;;;;;;;8.07;2.73;;;-2.90;86.40;;;;;;5054958;28;20255;-88
2021/12/25 10:52:27;;;;;;;6.27;3.40;;;-2.60;85.90;;;;;;5054044;28;20164;-90
2021/12/25 10:55:00;;;;;;;12.93;6.67;;;-2.60;85.40;;;;;;5055515;28;20190;-88
2021/12/25 10:57:54;;;;;;;8.93;2.97;;;-2.50;84.50;;;;;;5055057;28;20711;-87
2021/12/25 11:00:27;;;;;;;6.77;2.40;;;-2.30;84.20;;;;;;5054571;28;20161;-89
2021/12/25 11:02:55;;;;;;;3.40;2.37;;;-2.20;84.20;;;;;;5055314;28;20152;-88
2021/12/25 11:05:23;;;;;;;5.63;2.07;;;-1.90;84.10;;;;;;5054934;28;20694;-90
2021/12/25 11:08:13;;;;;;;3.80;1.97;;;-1.90;83.30;;;;;;5054852;28;20176;-89
2021/12/25 11:11:00;;;;;;;6.63;2.70;;;-1.60;83.70;;;;;;5053540;28;20180;-89
2021/12/25 11:13:27;;;;;;;6.70;2.60;;;-1.60;83.00;;;;;;5054737;28;20238;-89
2021/12/25 11:16:02;;;;;;;8.10;2.73;;;-1.60;82.90;;;;;;5054732;28;20187;-89
2021/12/25 11:18:29;;;;;;;5.83;3.40;;;-1.60;82.30;;;;;;5053492;28;20164;-89
2021/12/25 11:20:55;;;;;;;3.10;2.47;;;-1.40;82.90;;;;;;5053442;28;20211;-89
2021/12/25 11:23:21;;;;;;;6.37;2.93;;;-1.40;82.40;;;;;;5054476;28;20173;-88
2021/12/25 11:25:47;;;;;;;7.43;3.77;;;-1.30;83.30;;;;;;5054598;28;20174;-90
2021/12/25 11:28:18;;;;;;;4.03;3.13;;;-1.20;83.50;;;;;;5054649;28;20174;-90
2021/12/25 11:30:47;;;;;;;9.40;3.73;;;-0.70;83.60;;;;;;5053239;28;20259;-91
2021/12/25 11:33:13;;;;;;;6.10;3.27;;;-0.80;82.50;;;;;;5053333;28;20666;-90
2021/12/25 11:35:40;;;;;;;7.57;3.40;;;-0.90;82.60;;;;;;5054705;28;20195;-90
2021/12/25 11:38:08;;;;;;;11.40;3.60;;;-0.60;82.70;;;;;;5054466;28;20183;-90
2021/12/25 11:40:38;;;;;;;8.03;3.80;;;-0.70;83.10;;;;;;5052974;28;20238;-90
2021/12/25 11:43:04;;;;;;;6.93;3.53;;;-0.70;81.40;;;;;;5053196;28;20246;-89
2021/12/25 11:45:35;;;;;;;7.00;3.23;;;-0.60;81.50;;;;;;5054142;28;20212;-90
2021/12/25 11:48:14;;;;;;;11.23;3.70;;;-0.10;82.30;;;;;;5053209;28;20157;-90
2021/12/25 11:50:45;;;;;;;9.43;3.40;;;0.20;82.70;;;;;;5053187;28;20302;-91
2021/12/25 11:53:22;;;;;;;4.57;2.50;;;0.20;80.60;;;;;;5052953;28;20235;-90
2021/12/25 11:58:42;;;;;;;5.60;3.10;;;0.00;78.60;;;;;;5054409;28;20164;-89
2021/12/25 12:01:41;;;;;;;4.30;2.60;;;0.10;79.20;;;;;;5053877;28;20269;-89
2021/12/25 12:04:10;;;;;;;10.60;3.30;;;0.10;78.50;;;;;;5052444;28;20200;-88
2021/12/25 12:06:45;;;;;;;4.30;3.27;;;0.00;79.00;;;;;;5053801;28;20651;-88
2021/12/25 12:09:13;;;;;;;2.80;2.60;;;0.00;78.40;;;;;;5051773;28;20176;-88
2021/12/25 12:11:41;;;;;;;8.30;2.93;;;-0.10;78.10;;;;;;5052612;28;20548;-89
2021/12/25 12:14:22;;;;;;;9.93;2.60;;;0.00;78.30;;;;;;5053783;28;20717;-89
2021/12/25 12:16:54;;;;;;;6.37;2.43;;;0.00;77.30;;;;;;5053800;28;20177;-88
2021/12/25 12:19:41;;;;;;;10.47;2.43;;;0.10;77.70;;;;;;5053368;28;20298;-89
2021/12/25 12:25:25;;;;;;;11.37;2.50;;;0.20;76.10;;;;;;4998829;28;20200;-89
2021/12/25 12:27:55;;;;;;;6.53;2.17;;;0.20;75.70;;;;;;5053494;28;20169;-89
2021/12/25 12:30:44;;;;;;;4.53;2.07;;;0.20;75.90;;;;;;5052319;28;20636;-88
2021/12/25 12:33:17;;;;;;;3.63;2.40;;;0.10;75.70;;;;;;5053381;28;20172;-89
2021/12/25 12:35:47;;;;;;;3.00;2.10;;;0.20;76.10;;;;;;5053010;28;20168;-89
2021/12/25 12:38:39;;;;;;;7.07;2.30;;;0.20;75.00;;;;;;5052198;28;20161;-89
2021/12/25 12:41:20;;;;;;;4.73;2.20;;;0.30;75.50;;;;;;5053370;28;20229;-89
2021/12/25 12:43:56;;;;;;;4.43;2.13;;;0.10;75.30;;;;;;5053272;28;20276;-88
2021/12/25 12:46:43;;;;;;;6.33;2.57;;;0.10;74.40;;;;;;5052350;28;20189;-89
2021/12/25 12:49:08;;;;;;;6.93;2.30;;;0.20;74.40;;;;;;5035017;28;20184;-89
2021/12/25 12:51:35;;;;;;;5.77;2.40;;;0.20;74.80;;;;;;5053240;28;20179;-89
2021/12/25 12:54:02;;;;;;;11.33;2.40;;;0.30;75.20;;;;;;5053185;28;20242;-89
2021/12/25 12:56:29;;;;;;;5.17;2.17;;;0.10;74.60;;;;;;5053131;28;20172;-89
2021/12/25 12:58:56;;;;;;;4.80;2.10;;;0.10;74.40;;;;;;5052445;28;20200;-89
2021/12/25 13:01:23;;;;;;;9.77;2.63;;;0.30;74.50;;;;;;5051872;28;20195;-89
2021/12/25 13:03:58;;;;;;;4.03;2.40;;;0.30;73.50;;;;;;5053002;28;20196;-89
2021/12/25 13:06:28;;;;;;;2.40;2.20;;;0.30;73.60;;;;;;5051881;28;20166;-89
2021/12/25 13:08:55;;;;;;;3.17;2.17;;;0.40;74.20;;;;;;5051934;28;20177;-90
2021/12/25 13:11:26;;;;;;;6.97;1.93;;;0.30;73.50;;;;;;5053016;28;20196;-89
2021/12/25 13:14:01;;;;;;;3.73;2.27;;;0.40;74.10;;;;;;5052592;28;20235;-89
2021/12/25 13:16:43;;;;;;;7.00;2.20;;;0.30;73.00;;;;;;5053149;28;20160;-89
2021/12/25 13:19:10;;;;;;;4.77;2.23;;;0.30;74.10;;;;;;5051868;28;20167;-89
2021/12/25 13:21:37;;;;;;;6.00;2.03;;;0.10;73.10;;;;;;5056818;28;20196;-89
2021/12/25 13:24:09;;;;;;;4.97;2.43;;;0.10;73.40;;;;;;5056845;28;20208;-89
2021/12/25 13:26:39;;;;;;;5.13;2.27;;;0.00;73.80;;;;;;5056953;28;20176;-89
2021/12/25 13:29:07;;;;;;;6.67;2.37;;;0.10;73.30;;;;;;5057136;28;20174;-89
2021/12/25 13:31:37;;;;;;;7.37;2.00;;;0.10;73.70;;;;;;5056810;28;20179;-89
2021/12/25 13:34:23;;;;;;;5.30;2.20;;;0.00;73.20;;;;;;5056931;28;20184;-89
2021/12/25 13:36:54;;;;;;;5.13;2.43;;;0.00;73.90;;;;;;5056752;28;20164;-89
2021/12/25 13:39:26;;;;;;;3.77;2.70;;;-0.10;73.20;;;;;;5056643;28;20169;-89
2021/12/25 13:41:54;;;;;;;4.07;2.30;;;-0.20;74.30;;;;;;5056588;28;20215;-89
2021/12/25 13:44:25;;;;;;;3.90;2.40;;;-0.20;74.10;;;;;;5056485;28;20234;-89
2021/12/25 13:46:53;;;;;;;3.33;2.33;;;-0.20;73.40;;;;;;5055399;28;20178;-89
2021/12/25 13:49:40;;;;;;;2.83;2.20;;;-0.20;73.90;;;;;;5056459;28;20571;-89
2021/12/25 13:52:10;;;;;;;5.27;2.40;;;-0.30;73.80;;;;;;5055881;28;20235;-89
2021/12/25 13:54:40;;;;;;;5.83;2.27;;;-0.30;74.00;;;;;;5055321;28;20207;-89
2021/12/25 13:57:06;;;;;;;4.43;2.33;;;-0.30;74.20;;;;;;5056276;28;20288;-89
2021/12/25 13:59:32;;;;;;;4.20;2.33;;;-0.30;74.60;;;;;;5056199;28;20176;-89
2021/12/25 14:02:06;;;;;;;3.37;2.10;;;-0.40;75.20;;;;;;5056188;28;20190;-89
2021/12/25 14:04:33;;;;;;;8.37;2.53;;;-0.50;75.90;;;;;;5055342;28;20194;-88
2021/12/25 14:06:59;;;;;;;7.03;2.73;;;-0.50;76.00;;;;;;5054905;28;20212;-88
2021/12/25 14:09:25;;;;;;;5.00;2.60;;;-0.60;76.30;;;;;;5056136;28;20165;-88
2021/12/25 14:11:54;;;;;;;8.83;2.90;;;-0.60;76.60;;;;;;5056267;28;20702;-88
2021/12/25 14:14:22;;;;;;;8.20;2.50;;;-0.60;77.00;;;;;;5055996;28;20753;-89
2021/12/25 14:16:48;;;;;;;6.60;2.80;;;-0.70;76.80;;;;;;5054758;28;20214;-88
2021/12/25 14:19:14;;;;;;;6.97;2.53;;;-0.80;77.20;;;;;;5056000;28;20172;-88
2021/12/25 14:21:55;;;;;;;8.00;3.07;;;-0.90;77.80;;;;;;5056142;28;20275;-88
2021/12/25 14:24:21;;;;;;;12.23;2.80;;;-1.00;78.60;;;;;;5054464;28;20202;-88